createdAt,value
2023-05-11T00:01:12.898Z,11.24
2023-05-11T00:03:42.494Z,11.17
2023-05-11T00:06:10.335Z,11.27
2023-05-11T00:08:37.899Z,11.29
2023-05-11T00:11:09.190Z,11.36
2023-05-11T00:13:36.841Z,11.03
2023-05-11T00:16:05.023Z,11.18
2023-05-11T00:18:32.733Z,11.13
2023-05-11T00:21:01.982Z,11.11
2023-05-11T00:23:29.640Z,11.21
2023-05-11T00:25:57.355Z,11.08
2023-05-11T00:28:24.961Z,11.13
2023-05-11T00:30:57.141Z,11.05
2023-05-11T00:33:25.166Z,11.11
2023-05-11T00:35:53.065Z,11.18
2023-05-11T00:38:22.167Z,11.15
2023-05-11T00:40:49.907Z,11.24
2023-05-11T00:43:18.202Z,11.26
2023-05-11T00:45:47.986Z,11.14
2023-05-11T00:48:16.079Z,11.27
2023-05-11T00:50:44.088Z,11.32
2023-05-11T00:53:11.891Z,11.27
2023-05-11T00:55:41.049Z,11.15
2023-05-11T00:58:08.839Z,11.19
2023-05-11T01:00:36.658Z,11.17
2023-05-11T01:03:05.957Z,11.16
2023-05-11T01:05:42.101Z,11.22
2023-05-11T01:08:15.721Z,11.19
2023-05-11T01:10:50.313Z,11.04
2023-05-11T01:13:23.077Z,10.87
2023-05-11T01:15:52.949Z,11.04
2023-05-11T01:18:30.074Z,11.10
2023-05-11T01:21:03.592Z,10.97
2023-05-11T01:24:06.116Z,11.03
2023-05-11T01:26:55.450Z,11.08
2023-05-11T01:29:47.586Z,11.09
2023-05-11T01:32:20.991Z,11.00
2023-05-11T01:34:54.447Z,11.17
2023-05-11T01:37:24.200Z,11.17
2023-05-11T01:39:55.284Z,11.21
2023-05-11T01:42:31.580Z,11.19
2023-05-11T01:45:02.021Z,11.20
2023-05-11T01:47:32.580Z,11.08
2023-05-11T01:50:03.933Z,11.09
2023-05-11T01:52:33.609Z,11.04
2023-05-11T01:55:04.835Z,11.06
2023-05-11T01:57:33.757Z,10.99
2023-05-11T02:00:02.247Z,11.10
2023-05-11T02:02:33.472Z,11.14
2023-05-11T02:05:02.791Z,11.17
2023-05-11T02:07:33.287Z,11.15
2023-05-11T02:10:01.720Z,11.14
2023-05-11T02:12:31.763Z,11.09
2023-05-11T02:15:00.846Z,11.03
2023-05-11T02:17:30.353Z,11.07
2023-05-11T02:20:02.373Z,11.14
2023-05-11T02:22:33.185Z,11.13
2023-05-11T02:25:00.804Z,11.10
2023-05-11T02:27:29.127Z,11.07
2023-05-11T02:29:59.168Z,11.11
2023-05-11T02:32:29.972Z,11.02
2023-05-11T02:35:02.686Z,11.14
2023-05-11T02:37:34.481Z,11.08
2023-05-11T02:40:07.389Z,11.08
2023-05-11T02:42:39.333Z,11.08
2023-05-11T02:45:10.192Z,11.07
2023-05-11T02:47:43.268Z,11.04
2023-05-11T02:50:15.210Z,11.03
2023-05-11T02:52:47.823Z,11.10
2023-05-11T02:55:17.880Z,11.19
2023-05-11T02:57:46.841Z,11.19
2023-05-11T03:00:15.184Z,11.22
2023-05-11T03:02:43.018Z,11.22
2023-05-11T03:05:11.053Z,11.26
2023-05-11T03:07:40.790Z,11.20
2023-05-11T03:10:09.956Z,11.18
2023-05-11T03:12:40.828Z,11.16
2023-05-11T03:15:12.016Z,11.19
2023-05-11T03:17:42.897Z,11.18
2023-05-11T03:20:14.812Z,11.22
2023-05-11T03:22:44.689Z,11.21
2023-05-11T03:25:14.003Z,11.17
2023-05-11T03:27:43.495Z,11.23
2023-05-11T03:30:14.930Z,11.23
2023-05-11T03:32:46.237Z,11.26
2023-05-11T03:35:14.407Z,11.23
2023-05-11T03:37:43.618Z,11.20
2023-05-11T03:40:15.879Z,11.20
2023-05-11T03:42:55.386Z,11.18
2023-05-11T03:45:25.772Z,11.12
2023-05-11T03:47:55.649Z,11.23
2023-05-11T03:50:24.120Z,11.21
2023-05-11T03:52:52.349Z,11.24
2023-05-11T03:55:24.494Z,11.27
2023-05-11T03:57:52.752Z,11.24
2023-05-11T04:00:20.681Z,11.26
2023-05-11T04:02:48.598Z,11.26
2023-05-11T04:05:18.488Z,11.26
2023-05-11T04:07:47.308Z,11.29
2023-05-11T04:10:14.912Z,11.30
2023-05-11T04:12:43.965Z,11.28
2023-05-11T04:15:12.237Z,11.28
2023-05-11T04:17:40.029Z,11.26
2023-05-11T04:20:08.865Z,11.23
2023-05-11T04:22:36.489Z,11.25
2023-05-11T04:25:04.450Z,11.24
2023-05-11T04:27:34.016Z,11.26
2023-05-11T04:30:03.072Z,11.27
2023-05-11T04:32:30.931Z,11.25
2023-05-11T04:34:59.267Z,11.21
2023-05-11T04:37:29.580Z,11.26
2023-05-11T04:39:58.281Z,11.25
2023-05-11T04:42:26.083Z,11.27
2023-05-11T04:44:56.193Z,11.24
2023-05-11T04:47:25.470Z,11.25
2023-05-11T04:49:53.134Z,11.23
2023-05-11T04:52:21.152Z,11.25
2023-05-11T04:54:50.391Z,11.24
2023-05-11T04:57:18.110Z,11.18
2023-05-11T04:59:47.554Z,11.17
2023-05-11T05:02:15.311Z,11.25
2023-05-11T05:04:44.405Z,11.25
2023-05-11T05:07:12.587Z,11.27
2023-05-11T05:09:40.671Z,11.23
2023-05-11T05:12:09.272Z,11.21
2023-05-11T05:14:37.026Z,11.14
2023-05-11T05:17:06.361Z,11.21
2023-05-11T05:19:34.701Z,11.28
2023-05-11T05:22:04.144Z,11.29
2023-05-11T05:24:32.579Z,11.21
2023-05-11T05:27:00.246Z,11.33
2023-05-11T05:29:28.040Z,11.34
2023-05-11T05:31:55.847Z,11.28
2023-05-11T05:34:25.434Z,11.33
2023-05-11T05:36:53.697Z,11.39
2023-05-11T05:39:22.783Z,11.37
2023-05-11T05:41:51.113Z,11.40
2023-05-11T05:44:19.074Z,11.43
2023-05-11T05:46:47.023Z,11.45
2023-05-11T05:49:14.910Z,11.39
2023-05-11T05:51:43.456Z,11.43
2023-05-11T05:54:11.374Z,11.39
2023-05-11T05:56:40.992Z,11.32
2023-05-11T05:59:10.720Z,11.45
2023-05-11T06:01:44.235Z,11.45
2023-05-11T06:04:12.318Z,11.40
2023-05-11T06:06:40.479Z,11.56
2023-05-11T06:09:08.799Z,11.48
2023-05-11T06:11:36.795Z,11.52
2023-05-11T06:14:07.564Z,11.46
2023-05-11T06:16:35.624Z,11.45
2023-05-11T06:19:03.399Z,11.55
2023-05-11T06:21:31.280Z,11.53
2023-05-11T06:23:59.916Z,11.56
2023-05-11T06:26:30.586Z,11.50
2023-05-11T06:28:58.364Z,11.54
2023-05-11T06:31:27.526Z,11.48
2023-05-11T06:33:55.427Z,11.58
2023-05-11T06:36:26.542Z,11.45
2023-05-11T06:38:54.287Z,11.43
2023-05-11T06:41:22.594Z,11.48
2023-05-11T06:43:50.780Z,11.51
2023-05-11T06:46:30.850Z,11.60
2023-05-11T06:48:58.752Z,11.67
2023-05-11T06:51:26.326Z,11.74
2023-05-11T06:53:54.092Z,11.84
2023-05-11T06:56:22.612Z,11.91
2023-05-11T06:58:50.340Z,11.90
2023-05-11T07:01:18.072Z,11.89
2023-05-11T07:03:48.810Z,11.88
2023-05-11T07:06:16.558Z,11.81
2023-05-11T07:08:44.136Z,11.84
2023-05-11T07:11:13.136Z,11.92
2023-05-11T07:13:41.127Z,12.01
2023-05-11T07:16:08.876Z,12.09
2023-05-11T07:18:36.503Z,12.11
2023-05-11T07:21:05.862Z,12.10
2023-05-11T07:23:33.501Z,12.06
2023-05-11T07:26:03.804Z,12.16
2023-05-11T07:28:31.396Z,12.19
2023-05-11T07:30:59.120Z,12.19
2023-05-11T07:33:26.727Z,12.29
2023-05-11T07:35:54.345Z,12.27
2023-05-11T07:38:23.347Z,12.34
2023-05-11T07:40:51.144Z,12.38
2023-05-11T07:43:18.768Z,12.32
2023-05-11T07:45:46.376Z,12.27
2023-05-11T07:48:14.016Z,12.15
2023-05-11T07:50:42.775Z,12.27
2023-05-11T07:53:11.081Z,12.33
2023-05-11T07:55:40.440Z,12.46
2023-05-11T07:58:08.227Z,12.56
2023-05-11T08:00:35.964Z,12.60
2023-05-11T08:03:04.174Z,12.71
2023-05-11T08:05:33.042Z,12.71
2023-05-11T08:08:01.793Z,12.72
2023-05-11T08:10:29.424Z,12.71
2023-05-11T08:12:58.592Z,12.70
2023-05-11T08:15:26.313Z,12.68
2023-05-11T08:17:54.418Z,12.70
2023-05-11T08:20:22.120Z,12.76
2023-05-11T08:22:49.978Z,12.80
2023-05-11T08:25:17.980Z,12.84
2023-05-11T08:27:45.913Z,12.91
2023-05-11T08:30:16.104Z,13.02
2023-05-11T08:35:15.564Z,13.07
2023-05-11T08:37:43.179Z,12.93
2023-05-11T08:40:14.580Z,12.94
2023-05-11T08:42:47.541Z,13.03
2023-05-11T08:45:17.008Z,13.02
2023-05-11T08:47:46.505Z,13.21
2023-05-11T08:50:14.428Z,13.30
2023-05-11T08:52:42.430Z,13.38
2023-05-11T08:55:11.003Z,13.54
2023-05-11T08:57:39.637Z,13.53
2023-05-11T09:00:09.229Z,13.56
2023-05-11T09:02:38.904Z,13.65
2023-05-11T09:05:07.652Z,13.68
2023-05-11T09:07:40.237Z,13.70
2023-05-11T09:10:10.444Z,13.77
2023-05-11T09:12:39.255Z,13.75
2023-05-11T09:15:08.409Z,13.51
2023-05-11T09:17:36.243Z,13.85
2023-05-11T09:20:07.695Z,13.94
2023-05-11T09:22:41.554Z,13.98
2023-05-11T09:25:12.736Z,14.10
2023-05-11T09:27:44.013Z,14.11
2023-05-11T09:30:13.779Z,14.03
2023-05-11T09:32:49.262Z,14.12
2023-05-11T09:35:23.112Z,14.19
2023-05-11T09:38:05.870Z,14.19
2023-05-11T09:40:35.170Z,14.11
2023-05-11T09:43:03.314Z,14.26
2023-05-11T09:45:41.650Z,14.43
2023-05-11T09:48:24.900Z,14.51
2023-05-11T09:51:01.104Z,14.45
2023-05-11T09:53:36.150Z,14.47
2023-05-11T09:56:04.366Z,14.22
2023-05-11T09:58:46.878Z,14.07
2023-05-11T10:01:14.903Z,14.13
2023-05-11T10:03:50.523Z,14.12
2023-05-11T10:06:20.383Z,14.19
2023-05-11T10:08:48.800Z,14.04
2023-05-11T10:11:16.759Z,14.12
2023-05-11T10:13:45.739Z,14.16
2023-05-11T10:16:16.240Z,14.13
2023-05-11T10:18:45.152Z,14.12
2023-05-11T10:21:13.395Z,14.23
2023-05-11T10:23:43.460Z,14.46
2023-05-11T10:26:11.637Z,14.58
2023-05-11T10:28:39.878Z,14.54
2023-05-11T10:31:08.149Z,14.70
2023-05-11T10:33:36.464Z,14.90
2023-05-11T10:36:04.437Z,14.95
2023-05-11T10:38:32.054Z,15.04
2023-05-11T10:41:14.779Z,15.04
2023-05-11T10:44:00.623Z,15.01
2023-05-11T10:46:43.341Z,15.02
2023-05-11T10:49:31.573Z,15.11
2023-05-11T10:52:14.728Z,15.23
2023-05-11T10:55:02.915Z,15.29
2023-05-11T10:57:43.623Z,15.29
2023-05-11T11:00:48.101Z,15.36
2023-05-11T11:03:16.323Z,15.36
2023-05-11T11:05:45.269Z,15.42
2023-05-11T11:08:13.586Z,15.48
2023-05-11T11:10:43.882Z,15.50
2023-05-11T11:13:15.544Z,15.54
2023-05-11T11:16:14.532Z,15.51
2023-05-11T11:18:44.204Z,15.51
2023-05-11T11:21:15.473Z,15.63
2023-05-11T11:23:50.043Z,15.70
2023-05-11T11:26:21.003Z,15.50
2023-05-11T11:29:12.110Z,15.58
2023-05-11T11:31:40.563Z,15.62
2023-05-11T11:34:33.735Z,15.72
2023-05-11T11:37:05.135Z,15.78
2023-05-11T11:39:58.343Z,15.88
2023-05-11T11:42:37.862Z,15.96
2023-05-11T11:45:33.392Z,15.87
2023-05-11T11:48:14.646Z,15.85
2023-05-11T11:50:44.009Z,15.85
2023-05-11T11:53:13.919Z,15.84
2023-05-11T11:55:50.037Z,15.82
2023-05-11T11:58:54.327Z,15.75
2023-05-11T12:01:26.172Z,15.70
2023-05-11T12:04:16.766Z,15.68
2023-05-11T12:06:48.011Z,15.69
2023-05-11T12:09:19.337Z,15.81
2023-05-11T12:11:48.256Z,15.90
2023-05-11T12:14:16.799Z,15.88
2023-05-11T12:17:01.188Z,15.79
2023-05-11T12:19:29.297Z,15.85
2023-05-11T12:21:57.134Z,15.91
2023-05-11T12:24:25.491Z,15.95
2023-05-11T12:26:57.572Z,16.00
2023-05-11T12:29:26.237Z,15.96
2023-05-11T12:31:56.265Z,15.87
2023-05-11T12:34:24.433Z,15.81
2023-05-11T12:37:00.178Z,15.66
2023-05-11T12:39:31.962Z,15.60
2023-05-11T12:42:00.069Z,15.60
2023-05-11T12:44:28.193Z,15.44
2023-05-11T12:46:57.392Z,15.53
2023-05-11T12:49:27.514Z,15.51
2023-05-11T12:52:03.287Z,15.64
2023-05-11T12:54:34.103Z,15.73
2023-05-11T12:57:03.955Z,15.83
2023-05-11T12:59:37.485Z,15.84
2023-05-11T13:02:12.458Z,15.85
2023-05-11T13:04:41.824Z,15.79
2023-05-11T13:07:10.100Z,15.85
2023-05-11T13:09:38.704Z,15.85
2023-05-11T13:12:12.140Z,15.93
2023-05-11T13:14:40.013Z,16.04
2023-05-11T13:17:09.417Z,16.15
2023-05-11T13:19:37.654Z,16.17
2023-05-11T13:22:06.510Z,16.17
2023-05-11T13:24:34.696Z,16.08
2023-05-11T13:27:02.762Z,15.99
2023-05-11T13:29:30.707Z,15.81
2023-05-11T13:32:04.989Z,15.69
2023-05-11T13:34:43.148Z,15.68
2023-05-11T13:37:10.807Z,15.57
2023-05-11T13:39:38.586Z,15.51
2023-05-11T13:42:06.768Z,15.32
2023-05-11T13:44:34.419Z,15.31
2023-05-11T13:47:02.139Z,15.16
2023-05-11T13:49:30.000Z,15.20
2023-05-11T13:51:59.991Z,15.12
2023-05-11T13:54:27.775Z,15.12
2023-05-11T13:56:56.023Z,15.15
2023-05-11T13:59:23.632Z,15.28
2023-05-11T14:01:51.677Z,15.29
2023-05-11T14:04:20.360Z,15.34
2023-05-11T14:06:48.420Z,15.38
2023-05-11T14:09:17.467Z,15.42
2023-05-11T14:11:45.207Z,15.47
2023-05-11T14:14:13.989Z,15.60
2023-05-11T14:16:42.016Z,15.50
2023-05-11T14:19:10.910Z,15.55
2023-05-11T14:21:50.725Z,15.60
2023-05-11T14:24:34.808Z,15.63
2023-05-11T14:27:04.060Z,15.59
2023-05-11T14:29:43.298Z,15.58
2023-05-11T14:32:16.613Z,15.50
2023-05-11T14:34:50.715Z,15.59
2023-05-11T14:37:18.355Z,15.66
2023-05-11T14:39:47.332Z,15.66
2023-05-11T14:42:15.138Z,15.64
2023-05-11T14:44:42.810Z,15.61
2023-05-11T14:47:10.506Z,15.61
2023-05-11T14:49:38.158Z,15.52
2023-05-11T14:52:06.060Z,15.49
2023-05-11T14:54:33.916Z,15.46
2023-05-11T14:57:02.944Z,15.47
2023-05-11T14:59:31.100Z,15.39
2023-05-11T15:01:58.794Z,15.45
2023-05-11T15:04:27.196Z,15.43
2023-05-11T15:06:55.101Z,15.43
2023-05-11T15:09:24.015Z,15.30
2023-05-11T15:11:51.800Z,15.32
2023-05-11T15:14:20.776Z,15.15
2023-05-11T15:16:48.463Z,15.17
2023-05-11T15:19:16.478Z,15.29
2023-05-11T15:21:44.082Z,15.36
2023-05-11T15:24:11.687Z,15.46
2023-05-11T15:26:39.394Z,15.52
2023-05-11T15:29:06.998Z,15.61
2023-05-11T15:31:36.100Z,15.61
2023-05-11T15:34:03.776Z,15.61
2023-05-11T15:36:31.468Z,15.60
2023-05-11T15:38:59.379Z,15.56
2023-05-11T15:41:27.295Z,15.53
2023-05-11T15:43:54.916Z,15.39
2023-05-11T15:46:22.968Z,15.28
2023-05-11T15:48:52.859Z,15.19
2023-05-11T15:51:20.777Z,15.02
2023-05-11T15:53:48.458Z,15.01
2023-05-11T15:56:16.088Z,14.87
2023-05-11T15:58:43.847Z,14.76
2023-05-11T16:01:11.484Z,14.65
2023-05-11T16:03:39.179Z,14.66
2023-05-11T16:06:08.800Z,14.63
2023-05-11T16:08:36.469Z,14.66
2023-05-11T16:11:04.062Z,14.58
2023-05-11T16:13:31.774Z,14.42
2023-05-11T16:16:00.835Z,14.44
2023-05-11T16:18:28.696Z,14.31
2023-05-11T16:20:56.391Z,14.35
2023-05-11T16:23:25.797Z,14.27
2023-05-11T16:25:53.550Z,14.24
2023-05-11T16:28:21.685Z,14.29
2023-05-11T16:30:49.445Z,14.30
2023-05-11T16:33:17.627Z,14.23
2023-05-11T16:35:45.298Z,14.23
2023-05-11T16:38:17.337Z,14.17
2023-05-11T16:40:46.335Z,14.18
2023-05-11T16:43:13.938Z,14.06
2023-05-11T16:45:41.573Z,14.03
2023-05-11T16:48:09.314Z,14.13
2023-05-11T16:50:37.053Z,14.17
2023-05-11T16:53:04.655Z,14.16
2023-05-11T16:55:32.313Z,14.16
2023-05-11T16:58:01.277Z,14.14
2023-05-11T17:00:29.027Z,14.10
2023-05-11T17:02:57.024Z,13.98
2023-05-11T17:05:25.126Z,14.00
2023-05-11T17:07:52.764Z,14.01
2023-05-11T17:10:20.828Z,13.99
2023-05-11T17:12:48.617Z,13.97
2023-05-11T17:15:17.941Z,14.00
2023-05-11T17:17:45.595Z,13.97
2023-05-11T17:20:14.624Z,13.88
2023-05-11T17:22:42.234Z,13.92
2023-05-11T17:25:10.671Z,13.90
2023-05-11T17:27:38.406Z,13.88
2023-05-11T17:30:08.517Z,13.88
2023-05-11T17:32:37.830Z,13.88
2023-05-11T17:35:07.370Z,13.88
2023-05-11T17:37:35.021Z,13.86
2023-05-11T17:40:03.638Z,13.87
2023-05-11T17:42:31.940Z,13.89
2023-05-11T17:44:59.536Z,13.84
2023-05-11T17:47:27.424Z,13.81
2023-05-11T17:49:56.440Z,13.78
2023-05-11T17:52:24.660Z,13.74
2023-05-11T17:54:52.325Z,13.68
2023-05-11T17:57:20.436Z,13.68
2023-05-11T17:59:48.210Z,13.68
2023-05-11T18:02:17.192Z,13.64
2023-05-11T18:04:44.961Z,13.64
2023-05-11T18:07:14.088Z,13.63
2023-05-11T18:09:41.720Z,13.56
2023-05-11T18:12:11.819Z,13.55
2023-05-11T18:14:39.454Z,13.50
2023-05-11T18:17:07.127Z,13.45
2023-05-11T18:19:34.731Z,13.32
2023-05-11T18:22:02.373Z,13.28
2023-05-11T18:24:31.324Z,13.25
2023-05-11T18:26:58.948Z,13.20
2023-05-11T18:29:26.948Z,13.13
2023-05-11T18:31:54.585Z,13.09
2023-05-11T18:34:22.710Z,13.01
2023-05-11T18:36:50.770Z,12.99
2023-05-11T18:39:19.302Z,12.91
2023-05-11T18:41:48.270Z,12.84
2023-05-11T18:44:16.313Z,12.80
2023-05-11T18:46:43.965Z,12.77
2023-05-11T18:49:11.735Z,12.74
2023-05-11T18:51:39.338Z,12.72
2023-05-11T18:54:07.255Z,12.67
2023-05-11T18:56:34.975Z,12.62
2023-05-11T18:59:04.187Z,12.64
2023-05-11T19:01:46.544Z,12.59
2023-05-11T19:04:16.329Z,12.52
2023-05-11T19:06:44.169Z,12.48
2023-05-11T19:09:11.728Z,12.50
2023-05-11T19:11:39.621Z,12.47
2023-05-11T19:14:10.310Z,12.43
2023-05-11T19:16:37.938Z,12.41
2023-05-11T19:19:05.736Z,12.40
2023-05-11T19:21:35.447Z,12.40
2023-05-11T19:24:03.590Z,12.40
2023-05-11T19:26:31.443Z,12.38
2023-05-11T19:28:59.004Z,12.38
2023-05-11T19:31:31.286Z,12.37
2023-05-11T19:33:59.335Z,12.36
2023-05-11T19:36:27.256Z,12.32
2023-05-11T19:38:54.888Z,12.34
2023-05-11T19:41:22.491Z,12.29
2023-05-11T19:43:50.118Z,12.21
2023-05-11T19:46:17.709Z,12.18
2023-05-11T19:48:46.699Z,12.19
2023-05-11T19:51:14.304Z,12.20
2023-05-11T19:53:42.762Z,12.19
2023-05-11T19:56:10.450Z,12.21
2023-05-11T19:58:38.071Z,12.23
2023-05-11T20:01:05.958Z,12.24
2023-05-11T20:03:33.732Z,12.21
2023-05-11T20:06:02.747Z,12.24
2023-05-11T20:08:30.365Z,12.22
2023-05-11T20:10:57.977Z,12.24
2023-05-11T20:13:25.684Z,12.24
2023-05-11T20:15:53.308Z,12.22
2023-05-11T20:18:21.094Z,12.20
2023-05-11T20:20:48.895Z,12.20
2023-05-11T20:23:18.015Z,12.19
2023-05-11T20:25:46.464Z,12.19
2023-05-11T20:28:14.103Z,12.19
2023-05-11T20:30:41.702Z,12.16
2023-05-11T20:35:40.286Z,12.18
2023-05-11T20:38:07.882Z,12.18
2023-05-11T20:40:37.495Z,12.19
2023-05-11T20:43:05.140Z,12.13
2023-05-11T20:45:33.069Z,12.14
2023-05-11T20:48:00.700Z,12.13
2023-05-11T20:50:29.293Z,12.12
2023-05-11T20:52:56.995Z,12.13
2023-05-11T20:55:24.732Z,12.11
2023-05-11T20:57:53.645Z,12.07
2023-05-11T21:00:21.644Z,12.04
2023-05-11T21:02:49.668Z,12.05
2023-05-11T21:05:17.567Z,12.01
2023-05-11T21:07:45.342Z,12.00
2023-05-11T21:10:13.388Z,11.98
2023-05-11T21:12:41.405Z,11.97
2023-05-11T21:15:11.018Z,11.97
2023-05-11T21:17:38.969Z,11.98
2023-05-11T21:20:07.786Z,11.94
2023-05-11T21:22:35.807Z,11.92
2023-05-11T21:25:04.565Z,11.91
2023-05-11T21:27:32.716Z,11.88
2023-05-11T21:30:00.589Z,11.87
2023-05-11T21:32:29.846Z,11.89
2023-05-11T21:34:57.524Z,11.91
2023-05-11T21:37:25.247Z,11.96
2023-05-11T21:39:53.119Z,11.97
2023-05-11T21:42:20.983Z,11.99
2023-05-11T21:44:48.728Z,12.02
2023-05-11T21:47:16.443Z,11.97
2023-05-11T21:49:45.366Z,11.95
2023-05-11T21:52:12.971Z,11.96
2023-05-11T21:54:40.716Z,11.98
2023-05-11T21:57:08.473Z,12.01
2023-05-11T21:59:36.166Z,11.98
2023-05-11T22:02:03.926Z,12.00
2023-05-11T22:04:31.867Z,12.01
2023-05-11T22:07:01.744Z,11.98
2023-05-11T22:09:29.990Z,11.95
2023-05-11T22:11:58.158Z,11.89
2023-05-11T22:14:26.168Z,11.92
2023-05-11T22:16:53.754Z,11.91
2023-05-11T22:19:21.334Z,11.91
2023-05-11T22:21:49.015Z,11.91
2023-05-11T22:24:18.491Z,11.89
2023-05-11T22:26:46.088Z,11.85
2023-05-11T22:29:14.239Z,11.83
2023-05-11T22:31:43.394Z,11.85
2023-05-11T22:34:12.426Z,11.83
2023-05-11T22:36:40.024Z,11.84
2023-05-11T22:39:07.613Z,11.90
2023-05-11T22:41:36.551Z,11.90
2023-05-11T22:44:04.192Z,11.88
2023-05-11T22:46:31.957Z,11.87
2023-05-11T22:48:59.586Z,11.85
2023-05-11T22:51:27.241Z,11.85
2023-05-11T22:53:55.168Z,11.85
2023-05-11T22:56:22.896Z,11.84
2023-05-11T22:58:54.881Z,11.86
2023-05-11T23:01:22.529Z,11.85
2023-05-11T23:03:50.175Z,11.87
2023-05-11T23:06:17.971Z,11.91
2023-05-11T23:08:45.583Z,11.89
2023-05-11T23:11:13.626Z,11.86
2023-05-11T23:13:42.818Z,11.85
2023-05-11T23:16:12.217Z,11.89
2023-05-11T23:18:40.012Z,11.86
2023-05-11T23:21:08.692Z,11.86
2023-05-11T23:23:36.349Z,11.84
2023-05-11T23:26:03.959Z,11.77
2023-05-11T23:28:31.718Z,11.75
2023-05-11T23:30:59.338Z,11.74
2023-05-11T23:33:28.454Z,11.76
2023-05-11T23:35:56.466Z,11.80
2023-05-11T23:38:24.439Z,11.82
2023-05-11T23:40:52.380Z,11.82
2023-05-11T23:43:20.696Z,11.80
2023-05-11T23:45:48.608Z,11.81
2023-05-11T23:48:16.591Z,11.78
2023-05-11T23:50:45.572Z,11.78
2023-05-11T23:53:13.508Z,11.73
2023-05-11T23:55:41.122Z,11.74
2023-05-11T23:58:09.712Z,11.74
